AirNav   Free Bose QuietComfort 20
 
 1060 users online  

47PN Bristol USAR Center Heliport
Bristol, Pennsylvania, USA

GOING TO BRISTOL?


FAA INFORMATION EFFECTIVE 05 DECEMBER 2019

Location

FAA Identifier: 47PN
Lat/Long: 40-07-20.3960N 074-53-48.5970W
40-07.339933N 074-53.809950W
40.1223322,-74.8968325
(estimated)
Elevation: 45 ft. / 14 m (estimated)
Variation: 12W (1985)
From city: 2 miles S of BRISTOL, PA
Time zone: UTC -5 (UTC -4 during Daylight Saving Time)
Zip code: 19007

Heliport Operations

Heliport use: Private use. Permission required prior to landing
Activation date: 08/1980
Control tower: no
ARTCC: NEW YORK CENTER
FSS: WILLIAMSPORT FLIGHT SERVICE STATION
Attendance: UNATNDD
Wind indicator: no
Segmented circle: no

Heliport Communications

WX ASOS at PNE (6 nm SW): PHONE 215-677-0146
WX ASOS at TTN (10 nm N): 126.775 (609-538-8690)
WX ASOS at VAY (11 nm S): 119.325 (609-267-1176)
WX ASOS at DYL (16 nm NW): 118.875 (215-345-0392)
WX AWOS-3 at LOM (17 nm W): 118.925 (215-646-1068)

Nearby radio navigation aids

VOR radial/distance  VOR name  Freq  Var
ARDr186/7.9YARDLEY VOR/DME108.2010W
GXUr308/15.4MC GUIRE VORTAC110.6012W
RBVr265/19.0ROBBINSVILLE VORTAC113.8010W
CYNr321/28.2COYLE VORTAC113.4010W
SBJr204/28.5SOLBERG VOR/DME112.9010W
PTWr110/31.0POTTSTOWN VORTAC116.5009W
OODr043/34.7WOODSTOWN VORTAC112.8010W
VCNr015/35.2CEDAR LAKE VOR/DME115.2010W
COLr262/35.6COLTS NECK VOR/DME115.4011W
MXEr080/37.6MODENA VORTAC113.2009W

 
NDB name  Hdg/Dist  Freq  Var  ID
AMBLER103/17.827512WING .. -. --.
LAKEHURST291/26.239611WNEL -. . .-..

Heliport Services

Runway Information

Helipad H1

Dimensions: 150 x 80 ft. / 46 x 24 m
Surface: turf, in fair condition
Latitude: 40-07.339933N
Longitude: 074-53.809950W
Elevation: 45.0 ft.
Traffic pattern: leftleft
Markings: none, in fair condition

Heliport Ownership and Management from official FAA records

Ownership: Privately-owned
Owner: BRISTOL VETERANS USAR CENTER
2501 FORD ROAD
BRISTOL, PA 19007-6898
Phone 215-781-3784
Manager: THOMAS E. LYNCH
2501 FORD ROAD
BRISTOL, PA 19007-6898
Phone 215-781-3786
FACILITY MANAGER.

Additional Remarks

FOR CD CTC PHILADELPHIA APCH AT 800-354-9884.

Instrument Procedures

There are no published instrument procedures at 47PN.

Some nearby airports with instrument procedures:

KPNE - Northeast Philadelphia Airport (6 nm SW)
KTTN - Trenton Mercer Airport (10 nm N)
KVAY - South Jersey Regional Airport (11 nm S)
N14 - Flying W Airport (12 nm S)
N87 - Trenton-Robbinsville Airport (15 nm E)
KWRI - McGuire Field (Joint Base Mc Guire Dix Lakehurst) Airport (15 nm SE)
KDYL - Doylestown Airport (16 nm NW)
KLOM - Wings Field Airport (17 nm W)
39N - Princeton Airport (20 nm NE)
 
Loc | Ops | Rwys | IFR | FBO | Links
Com | Nav | Svcs | Stats | Notes
Area around 47PN (Bristol USAR Center Heliport)
 
Road maps at: MapQuest Bing Google
 
Aerial photo
No photo
 
Sectional chart

 
Airport distance calculator
Flying to Bristol USAR Center Heliport? Find the distance to fly.

From to 47PN

Sunrise and sunset
Times for 07-Dec-2019
 Local
(UTC-5)
 Zulu
(UTC)
Morning civil twilight06:3911:39
Sunrise07:0912:09
Sunset16:3321:33
Evening civil twilight17:0322:03

Current date and time
Zulu (UTC)  08-Dec-2019 03:03:00
Local (UTC-5)  07-Dec-2019 22:03:00
 
METAR
KPNE 
6nm SW 
080254Z 35004KT 10SM CLR M01/M09 A3051 RMK AO2 SLP332 T10061089 51015
KTTN 
10nm N 
ASOS 133.70 609-538-8690
080253Z 33003KT 10SM CLR M03/M09 A3049 RMK AO2 SLP320 T10281089 51014
KVAY 
12nm S 
ASOS 119.325 609-267-1176
080254Z AUTO 00000KT 10SM CLR M04/M07 A3050 RMK AO2 SLP329 T10391072 52016
KWRI 
16nm SE 
080256Z AUTO 00000KT 10SM CLR M02/M09 A3049 RMK AO2 SLP326 T10221087 52016 $
KDYL 
16nm NW 
080254Z AUTO 00000KT 10SM CLR M03/M09 A3047 RMK AO2 SLP327 T10281094 51013
KLOM 
17nm W 
080255Z AUTO 00000KT 10SM CLR M04/M06 A3049 RMK AO2 T10381064
TAF
KPNE 
6nm SW 
071720Z 0718/0818 35008KT P6SM SCT250 FM072300 VRB02KT P6SM SKC FM081600 17006KT P6SM SCT250
KTTN 
10nm N 
071720Z 0718/0818 34008KT P6SM SCT250 FM072300 VRB02KT P6SM SKC FM081600 18006KT P6SM SCT250
KWRI 
16nm SE 
080200Z 0802/0908 VRB05KT 9999 FEW250 QNH3045INS BECMG 0814/0815 18008KT 9999 SCT200 QNH3027INS BECMG 0901/0902 18006KT 9999 BKN045 OVC080 QNH3018INS TX07/0819Z TNM06/0812Z
NOTAMs
Click for the latest NOTAMs
NOTAMs are issued by the DoD/FAA and will open in a separate window not controlled by AirNav.

 

 
 

Would you like to see your business listed on this page?

 If your business provides an interesting product or service to pilots, flight crews, aircraft, or users of the Bristol USAR Center Heliport, you should consider listing it here.  To start the listing process, click on the button below
 
Add a business
 

Other Pages about Bristol USAR Center Heliport

Update a link
 
Copyright © AirNav, LLC. All rights reserved. Privacy Policy  Contact